createdAt,value
2022-12-25T00:01:46.433Z,7.49
2022-12-25T00:04:12.907Z,7.43
2022-12-25T00:06:39.418Z,7.45
2022-12-25T00:09:05.785Z,7.50
2022-12-25T00:11:32.247Z,7.54
2022-12-25T00:13:58.677Z,7.59
2022-12-25T00:16:26.623Z,7.59
2022-12-25T00:18:54.030Z,7.57
2022-12-25T00:21:21.808Z,7.53
2022-12-25T00:23:53.000Z,7.54
2022-12-25T00:26:19.526Z,7.57
2022-12-25T00:28:45.978Z,7.57
2022-12-25T00:31:15.598Z,7.58
2022-12-25T00:33:43.701Z,7.57
2022-12-25T00:36:11.644Z,7.59
2022-12-25T00:38:39.715Z,7.62
2022-12-25T00:41:08.872Z,7.57
2022-12-25T00:43:35.964Z,7.59
2022-12-25T00:46:05.445Z,7.57
2022-12-25T00:48:32.658Z,7.55
2022-12-25T00:51:06.022Z,7.51
2022-12-25T00:53:32.472Z,7.53
2022-12-25T00:56:03.055Z,7.50
2022-12-25T00:58:31.826Z,7.35
2022-12-25T01:00:58.601Z,7.32
2022-12-25T01:03:26.062Z,7.22
2022-12-25T01:05:58.306Z,7.11
2022-12-25T01:08:25.893Z,7.20
2022-12-25T01:11:07.853Z,7.25
2022-12-25T01:13:37.352Z,7.34
2022-12-25T01:16:11.137Z,7.41
2022-12-25T01:18:38.616Z,7.41
2022-12-25T01:21:12.664Z,7.51
2022-12-25T01:23:39.407Z,7.53
2022-12-25T01:26:07.271Z,7.58
2022-12-25T01:28:34.500Z,7.55
2022-12-25T01:31:01.438Z,7.52
2022-12-25T01:33:28.045Z,7.54
2022-12-25T01:35:54.523Z,7.47
2022-12-25T01:38:21.261Z,7.45
2022-12-25T01:40:47.667Z,7.37
2022-12-25T01:43:30.104Z,7.39
2022-12-25T01:45:57.812Z,7.25
2022-12-25T01:48:34.033Z,7.24
2022-12-25T01:51:18.712Z,7.20
2022-12-25T01:53:45.133Z,7.20
2022-12-25T01:56:12.009Z,7.22
2022-12-25T01:58:38.420Z,7.22
2022-12-25T02:01:05.932Z,7.22
2022-12-25T02:03:32.539Z,7.23
2022-12-25T02:06:00.446Z,7.23
2022-12-25T02:08:27.309Z,7.18
2022-12-25T02:10:53.748Z,7.15
2022-12-25T02:13:21.086Z,7.16
2022-12-25T02:16:09.261Z,7.17
2022-12-25T02:19:04.373Z,7.09
2022-12-25T02:21:58.517Z,7.04
2022-12-25T02:24:43.645Z,7.06
2022-12-25T02:27:22.102Z,7.02
2022-12-25T02:29:53.250Z,7.04
2022-12-25T02:32:28.204Z,7.04
2022-12-25T02:35:12.971Z,7.03
2022-12-25T02:37:52.150Z,6.90
2022-12-25T02:40:25.036Z,6.94
2022-12-25T02:43:25.420Z,6.86
2022-12-25T02:46:13.511Z,6.76
2022-12-25T02:49:06.261Z,6.62
2022-12-25T02:51:55.329Z,6.63
2022-12-25T02:54:47.231Z,6.68
2022-12-25T02:57:34.360Z,6.72
2022-12-25T03:00:21.286Z,6.73
2022-12-25T03:03:08.771Z,6.72
2022-12-25T03:05:57.311Z,6.73
2022-12-25T03:08:28.996Z,6.75
2022-12-25T03:11:31.710Z,6.75
2022-12-25T03:14:21.693Z,6.77
2022-12-25T03:16:52.958Z,6.64
2022-12-25T03:19:47.392Z,6.64
2022-12-25T03:22:40.559Z,6.64
2022-12-25T03:25:26.440Z,6.61
2022-12-25T03:27:55.525Z,6.48
2022-12-25T03:30:47.755Z,6.50
2022-12-25T03:34:10.407Z,6.38
2022-12-25T03:37:13.514Z,6.45
2022-12-25T03:39:53.747Z,6.38
2022-12-25T03:42:46.832Z,6.39
2022-12-25T03:45:44.766Z,6.35
2022-12-25T03:48:13.106Z,6.41
2022-12-25T03:51:10.495Z,6.40
2022-12-25T03:54:04.896Z,6.47
2022-12-25T03:56:51.772Z,6.48
2022-12-25T03:59:39.449Z,6.53
2022-12-25T04:02:35.641Z,6.46
2022-12-25T04:05:21.282Z,6.52
2022-12-25T04:08:06.076Z,6.50
2022-12-25T04:10:50.903Z,6.50
2022-12-25T04:13:35.612Z,6.49
2022-12-25T04:16:20.620Z,6.53
2022-12-25T04:19:05.688Z,6.46
2022-12-25T04:21:50.642Z,6.48
2022-12-25T04:24:35.453Z,6.48
2022-12-25T04:27:20.458Z,6.49
2022-12-25T04:30:05.483Z,6.49
2022-12-25T04:32:50.340Z,6.51
2022-12-25T04:35:35.300Z,6.50
2022-12-25T04:38:01.720Z,6.54
2022-12-25T04:40:28.185Z,6.56
2022-12-25T04:42:54.593Z,6.46
2022-12-25T04:45:21.077Z,6.42
2022-12-25T04:47:47.498Z,6.40
2022-12-25T04:50:13.939Z,6.37
2022-12-25T04:52:41.154Z,6.27
2022-12-25T04:55:09.450Z,6.23
2022-12-25T04:57:35.924Z,6.27
2022-12-25T05:00:02.617Z,6.23
2022-12-25T05:02:29.214Z,6.12
2022-12-25T05:04:55.775Z,6.36
2022-12-25T05:07:22.191Z,6.28
2022-12-25T05:09:48.613Z,6.34
2022-12-25T05:12:15.045Z,6.28
2022-12-25T05:14:41.501Z,6.36
2022-12-25T05:17:08.115Z,6.39
2022-12-25T05:19:35.119Z,6.32
2022-12-25T05:22:01.639Z,6.36
2022-12-25T05:24:28.543Z,6.33
2022-12-25T05:26:55.045Z,6.38
2022-12-25T05:29:21.711Z,6.39
2022-12-25T05:31:48.211Z,6.37
2022-12-25T05:34:14.680Z,6.40
2022-12-25T05:36:41.106Z,6.40
2022-12-25T05:39:07.584Z,6.44
2022-12-25T05:41:34.626Z,6.45
2022-12-25T05:44:01.995Z,6.45
2022-12-25T05:46:28.447Z,6.29
2022-12-25T05:48:55.173Z,6.58
2022-12-25T05:51:21.669Z,6.61
2022-12-25T05:53:48.243Z,6.51
2022-12-25T05:56:14.748Z,6.55
2022-12-25T05:58:41.621Z,6.50
2022-12-25T06:01:14.041Z,6.55
2022-12-25T06:03:40.601Z,6.50
2022-12-25T06:06:07.316Z,6.46
2022-12-25T06:08:34.668Z,6.39
2022-12-25T06:11:05.855Z,6.20
2022-12-25T06:13:33.813Z,6.38
2022-12-25T06:16:04.118Z,6.39
2022-12-25T06:18:30.542Z,6.27
2022-12-25T06:20:56.945Z,6.33
2022-12-25T06:23:24.166Z,6.31
2022-12-25T06:25:50.637Z,6.29
2022-12-25T06:28:17.034Z,6.34
2022-12-25T06:30:43.516Z,6.38
2022-12-25T06:33:09.910Z,6.38
2022-12-25T06:35:39.092Z,6.45
2022-12-25T06:38:06.037Z,6.43
2022-12-25T06:40:32.602Z,6.49
2022-12-25T06:42:59.010Z,6.45
2022-12-25T06:45:25.511Z,6.45
2022-12-25T06:47:51.928Z,6.41
2022-12-25T06:50:18.475Z,6.36
2022-12-25T06:52:44.916Z,6.43
2022-12-25T06:55:11.345Z,6.36
2022-12-25T06:57:37.789Z,6.42
2022-12-25T07:00:05.070Z,6.33
2022-12-25T07:02:33.305Z,6.40
2022-12-25T07:05:00.571Z,6.44
2022-12-25T07:07:26.967Z,6.39
2022-12-25T07:09:53.434Z,6.43
2022-12-25T07:12:23.308Z,6.46
2022-12-25T07:14:50.493Z,6.48
2022-12-25T07:17:17.785Z,6.51
2022-12-25T07:19:45.348Z,6.51
2022-12-25T07:22:12.898Z,6.52
2022-12-25T07:24:39.356Z,6.50
2022-12-25T07:27:06.007Z,6.45
2022-12-25T07:29:32.466Z,6.45
2022-12-25T07:31:58.921Z,6.41
2022-12-25T07:34:25.667Z,6.48
2022-12-25T07:36:54.480Z,6.53
2022-12-25T07:39:20.882Z,6.57
2022-12-25T07:41:47.318Z,6.60
2022-12-25T07:44:14.542Z,6.55
2022-12-25T07:46:41.073Z,6.56
2022-12-25T07:49:07.543Z,6.59
2022-12-25T07:51:34.028Z,6.39
2022-12-25T07:54:00.424Z,6.63
2022-12-25T07:56:27.260Z,6.61
2022-12-25T07:58:53.782Z,6.62
2022-12-25T08:01:23.035Z,6.62
2022-12-25T08:03:58.112Z,6.54
2022-12-25T08:06:29.828Z,6.37
2022-12-25T08:08:57.832Z,6.38
2022-12-25T08:11:24.280Z,6.48
2022-12-25T08:13:50.731Z,6.43
2022-12-25T08:16:17.201Z,6.52
2022-12-25T08:18:44.305Z,6.65
2022-12-25T08:21:13.509Z,6.48
2022-12-25T08:23:42.524Z,6.55
2022-12-25T08:26:13.142Z,6.57
2022-12-25T08:28:39.984Z,6.53
2022-12-25T08:31:27.731Z,6.51
2022-12-25T08:33:57.278Z,6.51
2022-12-25T08:36:24.315Z,6.56
2022-12-25T08:38:51.261Z,6.52
2022-12-25T08:41:19.132Z,6.46
2022-12-25T08:43:45.662Z,6.57
2022-12-25T08:46:12.569Z,6.67
2022-12-25T08:48:42.499Z,6.78
2022-12-25T08:51:14.449Z,6.79
2022-12-25T08:53:43.160Z,6.85
2022-12-25T08:56:09.926Z,6.92
2022-12-25T08:58:36.694Z,6.81
2022-12-25T09:01:04.018Z,6.93
2022-12-25T09:03:33.476Z,7.03
2022-12-25T09:06:08.235Z,6.99
2022-12-25T09:08:35.603Z,7.07
2022-12-25T09:11:04.211Z,7.10
2022-12-25T09:13:31.018Z,7.14
2022-12-25T09:15:57.527Z,7.14
2022-12-25T09:18:24.441Z,7.27
2022-12-25T09:21:01.275Z,7.37
2022-12-25T09:23:28.401Z,7.50
2022-12-25T09:25:55.101Z,7.63
2022-12-25T09:28:21.953Z,7.75
2022-12-25T09:30:52.319Z,7.87
2022-12-25T09:33:19.777Z,7.92
2022-12-25T09:36:07.321Z,8.06
2022-12-25T09:38:34.616Z,8.07
2022-12-25T09:41:30.443Z,8.11
2022-12-25T09:44:15.404Z,8.20
2022-12-25T09:46:47.281Z,8.33
2022-12-25T09:49:21.431Z,8.47
2022-12-25T09:51:53.211Z,8.55
2022-12-25T09:54:24.972Z,8.60
2022-12-25T09:56:52.187Z,8.78
2022-12-25T09:59:25.070Z,8.87
2022-12-25T10:02:28.785Z,8.97
2022-12-25T10:05:17.475Z,9.07
2022-12-25T10:08:05.083Z,9.17
2022-12-25T10:10:53.972Z,9.43
2022-12-25T10:13:58.698Z,9.66
2022-12-25T10:16:34.640Z,10.01
2022-12-25T10:19:15.920Z,10.06
2022-12-25T10:21:42.500Z,10.05
2022-12-25T10:24:35.782Z,9.98
2022-12-25T10:27:14.692Z,9.91
2022-12-25T10:29:43.538Z,9.81
2022-12-25T10:32:10.301Z,9.78
2022-12-25T10:34:40.633Z,9.74
2022-12-25T10:37:10.507Z,9.72
2022-12-25T10:39:40.975Z,9.76
2022-12-25T10:42:26.735Z,9.74
2022-12-25T10:45:04.052Z,9.76
2022-12-25T10:47:42.581Z,9.77
2022-12-25T10:50:20.528Z,9.80
2022-12-25T10:53:02.111Z,9.86
2022-12-25T10:55:29.826Z,9.85
2022-12-25T10:57:57.969Z,9.92
2022-12-25T11:00:27.458Z,10.01
2022-12-25T11:02:54.338Z,10.05
2022-12-25T11:05:29.908Z,10.13
2022-12-25T11:07:59.387Z,10.18
2022-12-25T11:10:34.155Z,10.22
2022-12-25T11:13:02.458Z,10.25
2022-12-25T11:15:31.556Z,10.22
2022-12-25T11:17:58.137Z,10.30
2022-12-25T11:20:24.582Z,10.34
2022-12-25T11:22:51.459Z,10.34
2022-12-25T11:25:24.044Z,10.43
2022-12-25T11:28:05.038Z,10.51
2022-12-25T11:30:35.033Z,10.46
2022-12-25T11:33:07.063Z,10.45
2022-12-25T11:35:47.577Z,10.51
2022-12-25T11:38:14.030Z,10.55
2022-12-25T11:40:52.624Z,10.64
2022-12-25T11:43:36.505Z,10.74
2022-12-25T11:46:21.878Z,10.79
2022-12-25T11:49:01.428Z,10.84
2022-12-25T11:51:35.564Z,10.92
2022-12-25T11:54:10.485Z,10.95
2022-12-25T11:56:37.718Z,11.08
2022-12-25T11:59:18.068Z,11.12
2022-12-25T12:01:52.027Z,11.19
2022-12-25T12:04:29.990Z,11.22
2022-12-25T12:07:24.197Z,11.23
2022-12-25T12:09:58.780Z,11.23
2022-12-25T12:12:53.797Z,11.36
2022-12-25T12:15:29.360Z,11.37
2022-12-25T12:18:07.228Z,11.44
2022-12-25T12:20:35.731Z,11.47
2022-12-25T12:23:10.722Z,11.44
2022-12-25T12:25:42.272Z,11.47
2022-12-25T12:28:20.603Z,11.57
2022-12-25T12:31:05.168Z,11.62
2022-12-25T12:33:48.755Z,11.70
2022-12-25T12:36:15.984Z,11.76
2022-12-25T12:38:44.121Z,11.78
2022-12-25T12:41:12.652Z,11.84
2022-12-25T12:43:47.082Z,11.92
2022-12-25T12:46:31.483Z,11.93
2022-12-25T12:49:22.098Z,11.99
2022-12-25T12:51:49.161Z,12.00
2022-12-25T12:54:25.760Z,12.05
2022-12-25T12:56:59.830Z,12.10
2022-12-25T12:59:32.620Z,12.05
2022-12-25T13:02:17.696Z,12.08
2022-12-25T13:04:52.621Z,12.15
2022-12-25T13:07:43.871Z,12.03
2022-12-25T13:10:33.449Z,12.18
2022-12-25T13:13:04.800Z,12.25
2022-12-25T13:15:33.948Z,12.26
2022-12-25T13:18:04.193Z,12.27
2022-12-25T13:20:44.973Z,12.28
2022-12-25T13:23:35.876Z,12.19
2022-12-25T13:26:11.803Z,12.25
2022-12-25T13:28:38.593Z,12.11
2022-12-25T13:31:26.582Z,12.15
2022-12-25T13:34:11.788Z,12.16
2022-12-25T13:36:40.096Z,12.20
2022-12-25T13:39:16.003Z,12.16
2022-12-25T13:42:06.817Z,12.03
2022-12-25T13:44:44.666Z,12.02
2022-12-25T13:47:19.143Z,12.02
2022-12-25T13:49:46.809Z,11.97
2022-12-25T13:52:21.291Z,11.90
2022-12-25T13:55:01.520Z,11.95
2022-12-25T13:57:33.026Z,11.92
2022-12-25T14:00:00.418Z,11.96
2022-12-25T14:02:37.720Z,11.81
2022-12-25T14:05:24.567Z,11.80
2022-12-25T14:07:55.582Z,11.83
2022-12-25T14:10:24.432Z,11.87
2022-12-25T14:12:53.482Z,11.91
2022-12-25T14:15:22.979Z,11.91
2022-12-25T14:17:52.574Z,11.87
2022-12-25T14:20:26.940Z,11.85
2022-12-25T14:22:56.270Z,11.88
2022-12-25T14:25:33.572Z,11.86
2022-12-25T14:28:06.018Z,11.73
2022-12-25T14:30:32.548Z,11.80
2022-12-25T14:32:59.473Z,11.75
2022-12-25T14:35:26.038Z,11.77
2022-12-25T14:38:00.035Z,11.63
2022-12-25T14:40:30.833Z,11.66
2022-12-25T14:43:02.865Z,11.59
2022-12-25T14:45:32.711Z,11.61
2022-12-25T14:48:21.241Z,11.41
2022-12-25T14:51:08.240Z,11.49
2022-12-25T14:53:41.083Z,11.47
2022-12-25T14:56:09.492Z,11.46
2022-12-25T14:58:41.965Z,11.42
2022-12-25T15:01:20.812Z,11.39
2022-12-25T15:03:49.074Z,11.35
2022-12-25T15:06:21.749Z,11.36
2022-12-25T15:09:00.317Z,11.29
2022-12-25T15:11:27.951Z,11.24
2022-12-25T15:13:54.411Z,11.28
2022-12-25T15:16:37.746Z,11.22
2022-12-25T15:19:07.242Z,11.19
2022-12-25T15:21:36.167Z,11.16
2022-12-25T15:24:03.493Z,11.13
2022-12-25T15:26:31.913Z,11.11
2022-12-25T15:28:58.720Z,11.02
2022-12-25T15:31:30.917Z,11.02
2022-12-25T15:34:00.114Z,11.09
2022-12-25T15:36:27.189Z,11.12
2022-12-25T15:38:54.203Z,11.08
2022-12-25T15:41:44.002Z,11.03
2022-12-25T15:44:11.448Z,10.99
2022-12-25T15:46:38.079Z,10.98
2022-12-25T15:49:04.549Z,10.94
2022-12-25T15:51:30.980Z,10.99
2022-12-25T15:53:58.884Z,10.93
2022-12-25T15:56:26.464Z,10.86
2022-12-25T15:58:52.881Z,10.83
2022-12-25T16:01:20.616Z,10.86
2022-12-25T16:03:47.414Z,10.84
2022-12-25T16:06:17.079Z,10.81
2022-12-25T16:08:44.569Z,10.80
2022-12-25T16:11:11.681Z,10.68
2022-12-25T16:13:38.193Z,10.67
2022-12-25T16:16:05.253Z,10.60
2022-12-25T16:18:31.706Z,10.53
2022-12-25T16:20:59.720Z,10.31
2022-12-25T16:23:26.197Z,10.47
2022-12-25T16:25:52.609Z,10.42
2022-12-25T16:28:19.077Z,10.44
2022-12-25T16:30:45.572Z,10.42
2022-12-25T16:33:12.115Z,10.38
2022-12-25T16:35:38.787Z,10.35
2022-12-25T16:38:05.419Z,10.38
2022-12-25T16:40:32.048Z,10.28
2022-12-25T16:42:58.561Z,10.16
2022-12-25T16:45:25.044Z,10.10
2022-12-25T16:47:51.497Z,10.20
2022-12-25T16:50:17.973Z,10.19
2022-12-25T16:52:44.397Z,10.23
2022-12-25T16:55:11.187Z,10.23
2022-12-25T16:57:37.698Z,10.17
2022-12-25T17:00:05.001Z,10.21
2022-12-25T17:02:31.603Z,10.15
2022-12-25T17:04:58.124Z,10.18
2022-12-25T17:07:24.561Z,10.19
2022-12-25T17:09:51.030Z,10.22
2022-12-25T17:12:17.547Z,10.15
2022-12-25T17:14:44.190Z,10.13
2022-12-25T17:17:10.635Z,10.22
2022-12-25T17:19:37.106Z,10.11
2022-12-25T17:22:03.603Z,10.11
2022-12-25T17:24:30.092Z,10.12
2022-12-25T17:26:56.518Z,10.16
2022-12-25T17:29:24.621Z,10.09
2022-12-25T17:31:51.418Z,10.06
2022-12-25T17:34:17.987Z,10.15
2022-12-25T17:36:44.426Z,10.03
2022-12-25T17:39:11.149Z,10.05
2022-12-25T17:41:37.768Z,9.99
2022-12-25T17:44:04.418Z,9.98
2022-12-25T17:46:31.222Z,9.94
2022-12-25T17:48:59.381Z,9.93
2022-12-25T17:51:27.360Z,9.95
2022-12-25T17:53:56.476Z,9.81
2022-12-25T17:56:24.024Z,9.80
2022-12-25T17:58:55.834Z,9.83
2022-12-25T18:01:23.805Z,9.79
2022-12-25T18:03:50.781Z,9.76
2022-12-25T18:06:20.221Z,9.73
2022-12-25T18:08:47.416Z,9.79
2022-12-25T18:11:18.168Z,9.77
2022-12-25T18:13:48.246Z,9.70
2022-12-25T18:16:15.255Z,9.73
2022-12-25T18:18:49.545Z,9.72
2022-12-25T18:21:18.156Z,9.64
2022-12-25T18:23:46.157Z,9.65
2022-12-25T18:26:12.869Z,9.70
2022-12-25T18:28:39.498Z,9.59
2022-12-25T18:31:26.654Z,9.68
2022-12-25T18:33:53.786Z,9.60
2022-12-25T18:36:23.410Z,9.62
2022-12-25T18:38:50.913Z,9.60
2022-12-25T18:41:18.890Z,9.59
2022-12-25T18:43:52.533Z,9.62
2022-12-25T18:46:26.227Z,9.61
2022-12-25T18:48:56.388Z,9.72
2022-12-25T18:51:23.267Z,9.81
2022-12-25T18:53:49.698Z,9.82
2022-12-25T18:56:17.745Z,9.91
2022-12-25T18:58:45.119Z,9.79
2022-12-25T19:01:20.756Z,9.77
2022-12-25T19:03:48.937Z,9.87
2022-12-25T19:06:25.175Z,9.94
2022-12-25T19:08:52.594Z,9.85
2022-12-25T19:11:19.798Z,9.79
2022-12-25T19:13:46.737Z,9.79
2022-12-25T19:16:13.934Z,9.77
2022-12-25T19:18:40.486Z,9.60
2022-12-25T19:21:08.935Z,9.73
2022-12-25T19:23:35.650Z,9.74
2022-12-25T19:26:04.624Z,9.76
2022-12-25T19:28:31.051Z,9.70
2022-12-25T19:30:59.659Z,9.73
2022-12-25T19:33:26.313Z,9.72
2022-12-25T19:35:52.728Z,9.66
2022-12-25T19:38:20.070Z,9.57
2022-12-25T19:41:00.239Z,9.53
2022-12-25T19:43:32.781Z,9.55
2022-12-25T19:46:00.262Z,9.53
2022-12-25T19:48:27.559Z,9.50
2022-12-25T19:50:54.513Z,9.53
2022-12-25T19:53:23.612Z,9.35
2022-12-25T19:55:52.396Z,9.49
2022-12-25T19:58:20.339Z,9.52
2022-12-25T20:01:00.584Z,9.51
2022-12-25T20:03:27.629Z,9.53
2022-12-25T20:05:54.140Z,9.49
2022-12-25T20:08:20.552Z,9.50
2022-12-25T20:10:47.039Z,9.52
2022-12-25T20:13:13.708Z,9.48
2022-12-25T20:15:40.318Z,9.46
2022-12-25T20:18:06.751Z,9.50
2022-12-25T20:20:33.236Z,9.48
2022-12-25T20:22:59.649Z,9.46
2022-12-25T20:25:26.053Z,9.41
2022-12-25T20:27:53.242Z,9.22
2022-12-25T20:30:19.876Z,9.42
2022-12-25T20:32:50.365Z,9.43
2022-12-25T20:35:17.350Z,9.41
2022-12-25T20:37:43.813Z,9.37
2022-12-25T20:40:11.384Z,9.36
2022-12-25T20:42:37.830Z,9.34
2022-12-25T20:45:06.777Z,9.35
2022-12-25T20:47:34.150Z,9.32
2022-12-25T20:50:00.597Z,9.32
2022-12-25T20:52:26.997Z,9.34
2022-12-25T20:54:53.705Z,9.35
2022-12-25T20:57:20.117Z,9.29
2022-12-25T20:59:46.908Z,9.20
2022-12-25T21:02:34.280Z,9.22
2022-12-25T21:05:00.180Z,9.26
2022-12-25T21:07:26.601Z,9.16
2022-12-25T21:09:53.056Z,9.15
2022-12-25T21:12:19.854Z,9.16
2022-12-25T21:14:46.245Z,9.16
2022-12-25T21:17:12.756Z,9.09
2022-12-25T21:19:39.285Z,9.12
2022-12-25T21:22:05.680Z,9.15
2022-12-25T21:24:32.115Z,9.09
2022-12-25T21:26:58.495Z,9.08
2022-12-25T21:29:25.020Z,9.11
2022-12-25T21:32:12.688Z,9.13
2022-12-25T21:34:39.713Z,9.16
2022-12-25T21:37:06.105Z,9.10
2022-12-25T21:39:32.704Z,9.16
2022-12-25T21:41:59.472Z,9.16
2022-12-25T21:44:25.891Z,9.16
2022-12-25T21:46:53.050Z,9.17
2022-12-25T21:49:39.582Z,9.16
2022-12-25T21:52:08.924Z,9.15
2022-12-25T21:54:35.612Z,9.11
2022-12-25T21:57:02.014Z,9.11
2022-12-25T21:59:28.675Z,9.02
2022-12-25T22:01:55.268Z,9.08
2022-12-25T22:04:23.015Z,9.14
2022-12-25T22:07:08.832Z,9.03
2022-12-25T22:09:35.451Z,9.05
2022-12-25T22:12:21.131Z,9.07
2022-12-25T22:14:54.092Z,9.06
2022-12-25T22:17:46.151Z,9.08
2022-12-25T22:20:25.614Z,9.15
2022-12-25T22:22:52.575Z,9.06
2022-12-25T22:25:19.352Z,9.14
2022-12-25T22:27:47.638Z,9.11
2022-12-25T22:30:20.218Z,9.15
2022-12-25T22:32:47.410Z,9.08
2022-12-25T22:35:15.978Z,8.98
2022-12-25T22:37:43.787Z,9.12
2022-12-25T22:40:13.609Z,9.16
2022-12-25T22:42:40.938Z,9.16
2022-12-25T22:45:08.239Z,9.18
2022-12-25T22:47:34.920Z,9.14
2022-12-25T22:50:01.657Z,9.18
2022-12-25T22:52:28.214Z,9.28
2022-12-25T22:54:54.692Z,9.20
2022-12-25T22:57:21.138Z,9.19
2022-12-25T22:59:47.654Z,9.13
2022-12-25T23:02:14.259Z,9.15
2022-12-25T23:04:40.825Z,9.11
2022-12-25T23:07:07.273Z,9.10
2022-12-25T23:09:34.183Z,9.13
2022-12-25T23:12:00.774Z,9.14
2022-12-25T23:14:39.364Z,9.06
2022-12-25T23:17:29.079Z,9.17
2022-12-25T23:20:15.835Z,9.19
2022-12-25T23:23:01.184Z,9.15
2022-12-25T23:25:48.074Z,9.06
2022-12-25T23:28:14.540Z,9.22
2022-12-25T23:30:40.960Z,9.12
2022-12-25T23:33:07.384Z,9.19
2022-12-25T23:35:33.844Z,9.19
2022-12-25T23:38:00.866Z,9.19
2022-12-25T23:40:27.276Z,9.22
2022-12-25T23:42:53.680Z,9.20
2022-12-25T23:45:20.128Z,9.20
2022-12-25T23:47:46.550Z,9.28
2022-12-25T23:50:13.025Z,8.97
2022-12-25T23:52:39.750Z,9.22
2022-12-25T23:55:06.922Z,9.23
2022-12-25T23:57:33.597Z,9.04
